sensor_id;sensor_type;location;lat;lon;timestamp;P1;durP1;ratioP1;P2;durP2;ratioP2
53271;SDS011;39160;48.580;7.756;2023-10-09T00:03:14;14.27;;;3.57;;
53271;SDS011;39160;48.580;7.756;2023-10-09T00:08:05;9.32;;;4.30;;
53271;SDS011;39160;48.580;7.756;2023-10-09T00:12:58;7.43;;;3.30;;
53271;SDS011;39160;48.580;7.756;2023-10-09T00:17:49;10.77;;;4.20;;
53271;SDS011;39160;48.580;7.756;2023-10-09T00:22:41;9.73;;;3.70;;
53271;SDS011;39160;48.580;7.756;2023-10-09T00:27:33;10.07;;;3.53;;
53271;SDS011;39160;48.580;7.756;2023-10-09T00:32:26;12.80;;;3.90;;
53271;SDS011;39160;48.580;7.756;2023-10-09T00:37:17;6.03;;;3.17;;
53271;SDS011;39160;48.580;7.756;2023-10-09T00:42:16;14.77;;;4.53;;
53271;SDS011;39160;48.580;7.756;2023-10-09T00:47:17;12.02;;;4.50;;
53271;SDS011;39160;48.580;7.756;2023-10-09T00:52:11;18.10;;;4.95;;
53271;SDS011;39160;48.580;7.756;2023-10-09T00:57:13;6.63;;;3.20;;
53271;SDS011;39160;48.580;7.756;2023-10-09T01:02:06;6.70;;;3.67;;
53271;SDS011;39160;48.580;7.756;2023-10-09T01:06:57;9.27;;;2.97;;
53271;SDS011;39160;48.580;7.756;2023-10-09T01:12:06;9.73;;;3.72;;
53271;SDS011;39160;48.580;7.756;2023-10-09T01:16:57;10.32;;;3.63;;
53271;SDS011;39160;48.580;7.756;2023-10-09T01:21:50;8.57;;;4.25;;
53271;SDS011;39160;48.580;7.756;2023-10-09T01:26:42;9.73;;;3.60;;
53271;SDS011;39160;48.580;7.756;2023-10-09T01:31:54;11.70;;;3.40;;
53271;SDS011;39160;48.580;7.756;2023-10-09T01:36:45;4.57;;;2.95;;
53271;SDS011;39160;48.580;7.756;2023-10-09T01:41:39;11.25;;;4.70;;
53271;SDS011;39160;48.580;7.756;2023-10-09T01:46:36;8.30;;;4.07;;
53271;SDS011;39160;48.580;7.756;2023-10-09T01:51:27;10.60;;;3.58;;
53271;SDS011;39160;48.580;7.756;2023-10-09T01:56:23;12.98;;;4.00;;
53271;SDS011;39160;48.580;7.756;2023-10-09T02:01:14;11.60;;;4.35;;
53271;SDS011;39160;48.580;7.756;2023-10-09T02:06:05;8.13;;;3.97;;
53271;SDS011;39160;48.580;7.756;2023-10-09T02:11:15;11.85;;;5.05;;
53271;SDS011;39160;48.580;7.756;2023-10-09T02:16:14;9.10;;;3.15;;
53271;SDS011;39160;48.580;7.756;2023-10-09T02:21:05;15.70;;;3.63;;
53271;SDS011;39160;48.580;7.756;2023-10-09T02:25:57;9.65;;;3.17;;
53271;SDS011;39160;48.580;7.756;2023-10-09T02:30:51;10.90;;;4.20;;
53271;SDS011;39160;48.580;7.756;2023-10-09T02:35:42;9.00;;;3.05;;
53271;SDS011;39160;48.580;7.756;2023-10-09T02:40:34;11.55;;;3.15;;
53271;SDS011;39160;48.580;7.756;2023-10-09T02:45:31;11.05;;;3.38;;
53271;SDS011;39160;48.580;7.756;2023-10-09T02:50:24;8.23;;;3.55;;
53271;SDS011;39160;48.580;7.756;2023-10-09T02:55:19;12.50;;;5.03;;
53271;SDS011;39160;48.580;7.756;2023-10-09T03:00:15;14.55;;;3.80;;
53271;SDS011;39160;48.580;7.756;2023-10-09T03:05:10;8.98;;;3.00;;
53271;SDS011;39160;48.580;7.756;2023-10-09T03:10:02;8.73;;;3.40;;
53271;SDS011;39160;48.580;7.756;2023-10-09T03:14:59;10.98;;;4.07;;
53271;SDS011;39160;48.580;7.756;2023-10-09T03:19:52;8.18;;;3.45;;
53271;SDS011;39160;48.580;7.756;2023-10-09T03:24:42;6.70;;;3.03;;
53271;SDS011;39160;48.580;7.756;2023-10-09T03:29:34;13.63;;;4.95;;
53271;SDS011;39160;48.580;7.756;2023-10-09T03:34:27;10.68;;;3.42;;
53271;SDS011;39160;48.580;7.756;2023-10-09T03:39:18;12.85;;;3.90;;
53271;SDS011;39160;48.580;7.756;2023-10-09T03:44:27;6.97;;;3.20;;
53271;SDS011;39160;48.580;7.756;2023-10-09T03:49:18;11.18;;;3.47;;
53271;SDS011;39160;48.580;7.756;2023-10-09T03:54:13;12.18;;;3.85;;
53271;SDS011;39160;48.580;7.756;2023-10-09T03:59:05;10.77;;;3.33;;
53271;SDS011;39160;48.580;7.756;2023-10-09T04:03:56;10.05;;;3.47;;
53271;SDS011;39160;48.580;7.756;2023-10-09T04:08:51;5.55;;;3.17;;
53271;SDS011;39160;48.580;7.756;2023-10-09T04:13:45;8.20;;;3.55;;
53271;SDS011;39160;48.580;7.756;2023-10-09T04:18:36;10.00;;;4.00;;
53271;SDS011;39160;48.580;7.756;2023-10-09T04:23:28;11.73;;;3.95;;
53271;SDS011;39160;48.580;7.756;2023-10-09T04:28:26;14.63;;;4.78;;
53271;SDS011;39160;48.580;7.756;2023-10-09T04:33:19;6.57;;;3.33;;
53271;SDS011;39160;48.580;7.756;2023-10-09T04:38:30;10.98;;;3.10;;
53271;SDS011;39160;48.580;7.756;2023-10-09T04:43:24;8.43;;;3.90;;
53271;SDS011;39160;48.580;7.756;2023-10-09T04:48:16;7.90;;;3.78;;
53271;SDS011;39160;48.580;7.756;2023-10-09T04:53:22;10.25;;;3.55;;
53271;SDS011;39160;48.580;7.756;2023-10-09T04:58:13;8.70;;;3.75;;
53271;SDS011;39160;48.580;7.756;2023-10-09T05:03:13;14.05;;;3.90;;
53271;SDS011;39160;48.580;7.756;2023-10-09T05:08:23;10.88;;;4.25;;
53271;SDS011;39160;48.580;7.756;2023-10-09T05:13:19;11.00;;;3.75;;
53271;SDS011;39160;48.580;7.756;2023-10-09T05:18:30;8.25;;;3.20;;
53271;SDS011;39160;48.580;7.756;2023-10-09T05:23:26;17.80;;;3.45;;
53271;SDS011;39160;48.580;7.756;2023-10-09T05:28:17;7.07;;;3.30;;
53271;SDS011;39160;48.580;7.756;2023-10-09T05:33:38;10.55;;;4.38;;
53271;SDS011;39160;48.580;7.756;2023-10-09T05:38:29;13.27;;;4.47;;
53271;SDS011;39160;48.580;7.756;2023-10-09T05:43:21;9.48;;;3.45;;
53271;SDS011;39160;48.580;7.756;2023-10-09T05:48:30;7.15;;;3.97;;
53271;SDS011;39160;48.580;7.756;2023-10-09T05:53:44;8.57;;;3.65;;
53271;SDS011;39160;48.580;7.756;2023-10-09T05:58:34;6.65;;;2.85;;
53271;SDS011;39160;48.580;7.756;2023-10-09T06:03:43;9.15;;;3.63;;
53271;SDS011;39160;48.580;7.756;2023-10-09T06:08:54;10.00;;;3.25;;
53271;SDS011;39160;48.580;7.756;2023-10-09T06:14:03;8.93;;;4.20;;
53271;SDS011;39160;48.580;7.756;2023-10-09T06:18:54;11.32;;;3.47;;
53271;SDS011;39160;48.580;7.756;2023-10-09T06:23:57;12.57;;;4.88;;
53271;SDS011;39160;48.580;7.756;2023-10-09T06:29:07;6.32;;;3.75;;
53271;SDS011;39160;48.580;7.756;2023-10-09T06:34:04;10.55;;;3.15;;
53271;SDS011;39160;48.580;7.756;2023-10-09T06:39:05;10.45;;;3.40;;
53271;SDS011;39160;48.580;7.756;2023-10-09T06:44:14;11.43;;;4.40;;
53271;SDS011;39160;48.580;7.756;2023-10-09T06:49:24;12.85;;;3.38;;
53271;SDS011;39160;48.580;7.756;2023-10-09T06:54:23;10.27;;;4.45;;
53271;SDS011;39160;48.580;7.756;2023-10-09T06:59:17;8.00;;;3.10;;
53271;SDS011;39160;48.580;7.756;2023-10-09T07:04:14;9.48;;;3.08;;
53271;SDS011;39160;48.580;7.756;2023-10-09T07:09:20;10.25;;;3.78;;
53271;SDS011;39160;48.580;7.756;2023-10-09T07:14:23;7.47;;;2.75;;
53271;SDS011;39160;48.580;7.756;2023-10-09T07:19:20;8.50;;;3.15;;
53271;SDS011;39160;48.580;7.756;2023-10-09T07:24:30;8.45;;;3.17;;
53271;SDS011;39160;48.580;7.756;2023-10-09T07:29:56;5.85;;;2.40;;
53271;SDS011;39160;48.580;7.756;2023-10-09T07:34:49;12.63;;;3.50;;
53271;SDS011;39160;48.580;7.756;2023-10-09T07:39:42;10.23;;;3.10;;
53271;SDS011;39160;48.580;7.756;2023-10-09T07:44:39;5.57;;;3.47;;
53271;SDS011;39160;48.580;7.756;2023-10-09T07:49:37;10.95;;;4.53;;
53271;SDS011;39160;48.580;7.756;2023-10-09T07:54:27;5.68;;;2.67;;
53271;SDS011;39160;48.580;7.756;2023-10-09T07:59:26;6.18;;;2.90;;
53271;SDS011;39160;48.580;7.756;2023-10-09T08:04:21;8.27;;;2.88;;
53271;SDS011;39160;48.580;7.756;2023-10-09T08:09:28;15.75;;;3.40;;
53271;SDS011;39160;48.580;7.756;2023-10-09T08:14:36;11.25;;;4.28;;
53271;SDS011;39160;48.580;7.756;2023-10-09T08:19:26;7.72;;;2.72;;
53271;SDS011;39160;48.580;7.756;2023-10-09T08:24:23;9.23;;;3.25;;
53271;SDS011;39160;48.580;7.756;2023-10-09T08:29:31;8.05;;;3.33;;
53271;SDS011;39160;48.580;7.756;2023-10-09T08:34:24;13.27;;;4.20;;
53271;SDS011;39160;48.580;7.756;2023-10-09T08:39:15;10.20;;;3.55;;
53271;SDS011;39160;48.580;7.756;2023-10-09T08:44:15;10.23;;;3.15;;
53271;SDS011;39160;48.580;7.756;2023-10-09T08:49:12;5.93;;;2.95;;
53271;SDS011;39160;48.580;7.756;2023-10-09T08:54:04;8.25;;;3.25;;
53271;SDS011;39160;48.580;7.756;2023-10-09T08:59:01;11.57;;;3.83;;
53271;SDS011;39160;48.580;7.756;2023-10-09T09:03:53;6.25;;;3.85;;
53271;SDS011;39160;48.580;7.756;2023-10-09T09:08:46;5.33;;;2.97;;
53271;SDS011;39160;48.580;7.756;2023-10-09T09:13:40;12.90;;;3.28;;
53271;SDS011;39160;48.580;7.756;2023-10-09T09:18:31;9.23;;;3.08;;
53271;SDS011;39160;48.580;7.756;2023-10-09T09:23:40;10.32;;;3.50;;
53271;SDS011;39160;48.580;7.756;2023-10-09T09:28:53;16.83;;;4.70;;
53271;SDS011;39160;48.580;7.756;2023-10-09T09:33:45;9.05;;;3.05;;
53271;SDS011;39160;48.580;7.756;2023-10-09T09:38:38;9.63;;;4.18;;
53271;SDS011;39160;48.580;7.756;2023-10-09T09:43:37;8.65;;;2.92;;
53271;SDS011;39160;48.580;7.756;2023-10-09T09:48:39;7.50;;;3.95;;
53271;SDS011;39160;48.580;7.756;2023-10-09T09:53:29;7.70;;;2.95;;
53271;SDS011;39160;48.580;7.756;2023-10-09T09:58:25;6.07;;;3.17;;
53271;SDS011;39160;48.580;7.756;2023-10-09T10:03:36;9.10;;;2.58;;
53271;SDS011;39160;48.580;7.756;2023-10-09T10:08:33;13.05;;;3.60;;
53271;SDS011;39160;48.580;7.756;2023-10-09T10:18:33;9.25;;;3.50;;
53271;SDS011;39160;48.580;7.756;2023-10-09T10:24:01;10.05;;;2.65;;
53271;SDS011;39160;48.580;7.756;2023-10-09T10:29:17;8.05;;;2.83;;
53271;SDS011;39160;48.580;7.756;2023-10-09T10:34:24;9.57;;;3.40;;
53271;SDS011;39160;48.580;7.756;2023-10-09T10:39:15;6.63;;;3.38;;
53271;SDS011;39160;48.580;7.756;2023-10-09T10:44:08;3.22;;;2.40;;
53271;SDS011;39160;48.580;7.756;2023-10-09T10:49:31;11.32;;;3.05;;
53271;SDS011;39160;48.580;7.756;2023-10-09T10:54:30;10.60;;;3.67;;
53271;SDS011;39160;48.580;7.756;2023-10-09T10:59:21;8.02;;;3.45;;
53271;SDS011;39160;48.580;7.756;2023-10-09T11:04:16;9.38;;;3.08;;
53271;SDS011;39160;48.580;7.756;2023-10-09T11:09:14;9.85;;;2.97;;
53271;SDS011;39160;48.580;7.756;2023-10-09T11:14:12;10.85;;;3.20;;
53271;SDS011;39160;48.580;7.756;2023-10-09T11:19:14;5.90;;;2.95;;
53271;SDS011;39160;48.580;7.756;2023-10-09T11:24:18;8.73;;;3.25;;
53271;SDS011;39160;48.580;7.756;2023-10-09T11:29:15;8.30;;;2.92;;
53271;SDS011;39160;48.580;7.756;2023-10-09T11:34:24;12.65;;;2.83;;
53271;SDS011;39160;48.580;7.756;2023-10-09T11:39:28;9.25;;;3.13;;
53271;SDS011;39160;48.580;7.756;2023-10-09T11:44:42;10.95;;;3.38;;
53271;SDS011;39160;48.580;7.756;2023-10-09T11:54:52;16.83;;;7.00;;
53271;SDS011;39160;48.580;7.756;2023-10-09T11:59:46;16.13;;;4.57;;
53271;SDS011;39160;48.580;7.756;2023-10-09T12:04:42;16.65;;;5.18;;
53271;SDS011;39160;48.580;7.756;2023-10-09T12:09:33;8.48;;;2.95;;
53271;SDS011;39160;48.580;7.756;2023-10-09T12:14:27;6.25;;;2.95;;
53271;SDS011;39160;48.580;7.756;2023-10-09T12:19:23;4.30;;;2.45;;
53271;SDS011;39160;48.580;7.756;2023-10-09T12:24:14;8.95;;;2.17;;
53271;SDS011;39160;48.580;7.756;2023-10-09T12:29:09;13.68;;;3.58;;
53271;SDS011;39160;48.580;7.756;2023-10-09T12:34:01;5.90;;;3.03;;
53271;SDS011;39160;48.580;7.756;2023-10-09T12:38:52;6.28;;;2.40;;
53271;SDS011;39160;48.580;7.756;2023-10-09T12:43:46;9.40;;;3.13;;
53271;SDS011;39160;48.580;7.756;2023-10-09T12:48:37;8.35;;;3.33;;
53271;SDS011;39160;48.580;7.756;2023-10-09T12:53:32;9.90;;;3.03;;
53271;SDS011;39160;48.580;7.756;2023-10-09T12:58:23;13.80;;;3.30;;
53271;SDS011;39160;48.580;7.756;2023-10-09T13:03:17;7.57;;;2.65;;
53271;SDS011;39160;48.580;7.756;2023-10-09T13:08:08;9.43;;;3.88;;
53271;SDS011;39160;48.580;7.756;2023-10-09T13:13:01;7.47;;;2.72;;
53271;SDS011;39160;48.580;7.756;2023-10-09T13:17:56;8.93;;;3.22;;
53271;SDS011;39160;48.580;7.756;2023-10-09T13:22:47;7.95;;;2.90;;
53271;SDS011;39160;48.580;7.756;2023-10-09T13:27:39;13.93;;;2.40;;
53271;SDS011;39160;48.580;7.756;2023-10-09T13:32:30;7.30;;;2.67;;
53271;SDS011;39160;48.580;7.756;2023-10-09T13:37:23;8.68;;;3.05;;
53271;SDS011;39160;48.580;7.756;2023-10-09T13:42:14;13.35;;;3.90;;
53271;SDS011;39160;48.580;7.756;2023-10-09T13:47:06;10.98;;;3.35;;
53271;SDS011;39160;48.580;7.756;2023-10-09T13:51:59;10.02;;;4.10;;
53271;SDS011;39160;48.580;7.756;2023-10-09T13:56:52;8.82;;;3.05;;
53271;SDS011;39160;48.580;7.756;2023-10-09T14:01:43;14.65;;;3.92;;
53271;SDS011;39160;48.580;7.756;2023-10-09T14:06:37;9.57;;;3.15;;
53271;SDS011;39160;48.580;7.756;2023-10-09T14:11:34;12.18;;;2.80;;
53271;SDS011;39160;48.580;7.756;2023-10-09T14:16:29;8.85;;;3.08;;
53271;SDS011;39160;48.580;7.756;2023-10-09T14:21:28;5.70;;;2.90;;
53271;SDS011;39160;48.580;7.756;2023-10-09T14:26:20;6.53;;;2.95;;
53271;SDS011;39160;48.580;7.756;2023-10-09T14:31:12;10.50;;;3.85;;
53271;SDS011;39160;48.580;7.756;2023-10-09T14:36:04;12.00;;;3.13;;
53271;SDS011;39160;48.580;7.756;2023-10-09T14:40:55;11.93;;;3.38;;
53271;SDS011;39160;48.580;7.756;2023-10-09T14:45:49;15.13;;;3.08;;
53271;SDS011;39160;48.580;7.756;2023-10-09T14:50:47;15.77;;;3.55;;
53271;SDS011;39160;48.580;7.756;2023-10-09T14:55:39;13.23;;;3.75;;
53271;SDS011;39160;48.580;7.756;2023-10-09T15:00:31;18.60;;;4.75;;
53271;SDS011;39160;48.580;7.756;2023-10-09T15:05:24;15.63;;;3.30;;
53271;SDS011;39160;48.580;7.756;2023-10-09T15:10:14;8.00;;;3.60;;
53271;SDS011;39160;48.580;7.756;2023-10-09T15:15:06;10.65;;;4.07;;
53271;SDS011;39160;48.580;7.756;2023-10-09T15:20:15;6.95;;;2.42;;
53271;SDS011;39160;48.580;7.756;2023-10-09T15:25:07;8.98;;;3.15;;
53271;SDS011;39160;48.580;7.756;2023-10-09T15:29:58;11.43;;;2.72;;
53271;SDS011;39160;48.580;7.756;2023-10-09T15:34:48;8.90;;;3.10;;
53271;SDS011;39160;48.580;7.756;2023-10-09T15:39:45;8.45;;;3.58;;
53271;SDS011;39160;48.580;7.756;2023-10-09T15:44:35;8.07;;;2.90;;
53271;SDS011;39160;48.580;7.756;2023-10-09T15:49:27;10.73;;;3.53;;
53271;SDS011;39160;48.580;7.756;2023-10-09T15:54:20;11.20;;;3.88;;
53271;SDS011;39160;48.580;7.756;2023-10-09T15:59:11;5.57;;;2.53;;
53271;SDS011;39160;48.580;7.756;2023-10-09T16:04:02;9.32;;;3.33;;
53271;SDS011;39160;48.580;7.756;2023-10-09T16:08:53;6.78;;;2.78;;
53271;SDS011;39160;48.580;7.756;2023-10-09T16:13:44;6.40;;;2.95;;
53271;SDS011;39160;48.580;7.756;2023-10-09T16:18:35;10.52;;;2.70;;
53271;SDS011;39160;48.580;7.756;2023-10-09T16:23:27;10.35;;;3.45;;
53271;SDS011;39160;48.580;7.756;2023-10-09T16:28:18;18.25;;;4.45;;
53271;SDS011;39160;48.580;7.756;2023-10-09T16:33:09;10.27;;;3.25;;
53271;SDS011;39160;48.580;7.756;2023-10-09T16:37:59;8.20;;;3.80;;
53271;SDS011;39160;48.580;7.756;2023-10-09T16:42:55;12.68;;;4.72;;
53271;SDS011;39160;48.580;7.756;2023-10-09T16:47:46;12.02;;;4.45;;
53271;SDS011;39160;48.580;7.756;2023-10-09T16:52:38;12.25;;;3.90;;
53271;SDS011;39160;48.580;7.756;2023-10-09T16:57:29;12.52;;;4.18;;
53271;SDS011;39160;48.580;7.756;2023-10-09T17:02:22;14.63;;;5.82;;
53271;SDS011;39160;48.580;7.756;2023-10-09T17:07:13;13.40;;;4.60;;
53271;SDS011;39160;48.580;7.756;2023-10-09T17:12:13;19.73;;;5.22;;
53271;SDS011;39160;48.580;7.756;2023-10-09T17:17:10;15.10;;;5.43;;
53271;SDS011;39160;48.580;7.756;2023-10-09T17:22:00;10.95;;;6.15;;
53271;SDS011;39160;48.580;7.756;2023-10-09T17:27:00;18.90;;;5.47;;
53271;SDS011;39160;48.580;7.756;2023-10-09T17:31:51;16.30;;;6.72;;
53271;SDS011;39160;48.580;7.756;2023-10-09T17:36:42;16.02;;;5.93;;
53271;SDS011;39160;48.580;7.756;2023-10-09T17:41:33;16.98;;;6.80;;
53271;SDS011;39160;48.580;7.756;2023-10-09T17:46:28;15.90;;;6.65;;
53271;SDS011;39160;48.580;7.756;2023-10-09T17:51:19;12.50;;;5.78;;
53271;SDS011;39160;48.580;7.756;2023-10-09T17:56:09;21.42;;;10.85;;
53271;SDS011;39160;48.580;7.756;2023-10-09T18:01:00;18.88;;;8.73;;
53271;SDS011;39160;48.580;7.756;2023-10-09T18:05:58;18.05;;;8.18;;
53271;SDS011;39160;48.580;7.756;2023-10-09T18:10:49;23.13;;;8.57;;
53271;SDS011;39160;48.580;7.756;2023-10-09T18:15:46;26.83;;;9.70;;
53271;SDS011;39160;48.580;7.756;2023-10-09T18:20:41;25.13;;;11.48;;
53271;SDS011;39160;48.580;7.756;2023-10-09T18:25:35;19.38;;;8.80;;
53271;SDS011;39160;48.580;7.756;2023-10-09T18:30:27;26.40;;;9.75;;
53271;SDS011;39160;48.580;7.756;2023-10-09T18:35:19;22.08;;;11.80;;
53271;SDS011;39160;48.580;7.756;2023-10-09T18:40:13;20.67;;;10.73;;
53271;SDS011;39160;48.580;7.756;2023-10-09T18:45:07;23.80;;;9.63;;
53271;SDS011;39160;48.580;7.756;2023-10-09T18:49:59;25.30;;;9.18;;
53271;SDS011;39160;48.580;7.756;2023-10-09T18:54:50;21.05;;;8.93;;
53271;SDS011;39160;48.580;7.756;2023-10-09T18:59:41;20.33;;;9.57;;
53271;SDS011;39160;48.580;7.756;2023-10-09T19:04:33;26.52;;;12.02;;
53271;SDS011;39160;48.580;7.756;2023-10-09T19:09:24;20.25;;;9.15;;
53271;SDS011;39160;48.580;7.756;2023-10-09T19:14:15;15.20;;;7.45;;
53271;SDS011;39160;48.580;7.756;2023-10-09T19:19:08;16.48;;;6.95;;
53271;SDS011;39160;48.580;7.756;2023-10-09T19:23:58;17.48;;;7.72;;
53271;SDS011;39160;48.580;7.756;2023-10-09T19:28:49;14.48;;;6.75;;
53271;SDS011;39160;48.580;7.756;2023-10-09T19:33:40;15.25;;;6.28;;
53271;SDS011;39160;48.580;7.756;2023-10-09T19:38:34;17.42;;;5.07;;
53271;SDS011;39160;48.580;7.756;2023-10-09T19:43:24;14.85;;;5.07;;
53271;SDS011;39160;48.580;7.756;2023-10-09T19:48:15;15.05;;;5.68;;
53271;SDS011;39160;48.580;7.756;2023-10-09T19:53:06;13.75;;;5.57;;
53271;SDS011;39160;48.580;7.756;2023-10-09T19:57:56;10.98;;;4.63;;
53271;SDS011;39160;48.580;7.756;2023-10-09T20:02:50;18.95;;;5.80;;
53271;SDS011;39160;48.580;7.756;2023-10-09T20:07:43;13.10;;;6.30;;
53271;SDS011;39160;48.580;7.756;2023-10-09T20:12:34;11.68;;;6.18;;
53271;SDS011;39160;48.580;7.756;2023-10-09T20:17:25;12.88;;;6.03;;
53271;SDS011;39160;48.580;7.756;2023-10-09T20:22:16;16.15;;;6.25;;
53271;SDS011;39160;48.580;7.756;2023-10-09T20:27:07;17.65;;;6.07;;
53271;SDS011;39160;48.580;7.756;2023-10-09T20:31:58;18.02;;;6.40;;
53271;SDS011;39160;48.580;7.756;2023-10-09T20:36:49;19.15;;;6.22;;
53271;SDS011;39160;48.580;7.756;2023-10-09T20:41:45;23.35;;;8.27;;
53271;SDS011;39160;48.580;7.756;2023-10-09T20:46:36;13.18;;;6.55;;
53271;SDS011;39160;48.580;7.756;2023-10-09T20:51:28;18.38;;;7.82;;
53271;SDS011;39160;48.580;7.756;2023-10-09T20:56:20;15.35;;;7.78;;
53271;SDS011;39160;48.580;7.756;2023-10-09T21:01:13;18.75;;;7.45;;
53271;SDS011;39160;48.580;7.756;2023-10-09T21:06:04;19.13;;;8.38;;
53271;SDS011;39160;48.580;7.756;2023-10-09T21:10:55;21.13;;;9.05;;
53271;SDS011;39160;48.580;7.756;2023-10-09T21:15:45;14.63;;;7.22;;
53271;SDS011;39160;48.580;7.756;2023-10-09T21:20:36;14.88;;;7.18;;
53271;SDS011;39160;48.580;7.756;2023-10-09T21:25:28;15.70;;;7.70;;
53271;SDS011;39160;48.580;7.756;2023-10-09T21:30:20;15.20;;;6.70;;
53271;SDS011;39160;48.580;7.756;2023-10-09T21:35:15;17.27;;;7.88;;
53271;SDS011;39160;48.580;7.756;2023-10-09T21:40:07;16.83;;;7.72;;
53271;SDS011;39160;48.580;7.756;2023-10-09T21:45:03;17.10;;;7.30;;
53271;SDS011;39160;48.580;7.756;2023-10-09T21:49:54;16.83;;;6.43;;
53271;SDS011;39160;48.580;7.756;2023-10-09T21:54:45;14.55;;;7.45;;
53271;SDS011;39160;48.580;7.756;2023-10-09T21:59:36;13.18;;;7.20;;
53271;SDS011;39160;48.580;7.756;2023-10-09T22:04:27;14.27;;;7.55;;
53271;SDS011;39160;48.580;7.756;2023-10-09T22:09:18;22.70;;;6.47;;
53271;SDS011;39160;48.580;7.756;2023-10-09T22:14:08;11.63;;;6.50;;
53271;SDS011;39160;48.580;7.756;2023-10-09T22:18:59;15.18;;;6.38;;
53271;SDS011;39160;48.580;7.756;2023-10-09T22:23:50;9.02;;;4.40;;
53271;SDS011;39160;48.580;7.756;2023-10-09T22:28:43;12.35;;;5.60;;
53271;SDS011;39160;48.580;7.756;2023-10-09T22:33:39;8.88;;;4.72;;
53271;SDS011;39160;48.580;7.756;2023-10-09T22:38:39;15.60;;;5.85;;
53271;SDS011;39160;48.580;7.756;2023-10-09T22:43:32;13.88;;;6.00;;
53271;SDS011;39160;48.580;7.756;2023-10-09T22:48:23;13.52;;;5.20;;
53271;SDS011;39160;48.580;7.756;2023-10-09T22:53:17;12.68;;;5.82;;
53271;SDS011;39160;48.580;7.756;2023-10-09T22:58:23;13.63;;;6.88;;
53271;SDS011;39160;48.580;7.756;2023-10-09T23:03:16;11.38;;;5.43;;
53271;SDS011;39160;48.580;7.756;2023-10-09T23:08:16;18.73;;;7.15;;
53271;SDS011;39160;48.580;7.756;2023-10-09T23:13:09;12.68;;;4.50;;
53271;SDS011;39160;48.580;7.756;2023-10-09T23:18:07;9.13;;;5.10;;
53271;SDS011;39160;48.580;7.756;2023-10-09T23:23:18;13.50;;;4.45;;
53271;SDS011;39160;48.580;7.756;2023-10-09T23:28:14;13.85;;;5.50;;
53271;SDS011;39160;48.580;7.756;2023-10-09T23:33:11;13.75;;;5.55;;
53271;SDS011;39160;48.580;7.756;2023-10-09T23:38:14;14.10;;;6.15;;
53271;SDS011;39160;48.580;7.756;2023-10-09T23:43:21;26.92;;;5.10;;
53271;SDS011;39160;48.580;7.756;2023-10-09T23:48:18;8.73;;;4.50;;
53271;SDS011;39160;48.580;7.756;2023-10-09T23:53:17;13.68;;;5.45;;
